sensor_id;sensor_type;location;lat;lon;timestamp;temperature;humidity
9760;DHT22;4919;48.792;9.202;2023-02-24T00:02:06;6.50;99.90
9760;DHT22;4919;48.792;9.202;2023-02-24T00:04:51;6.40;99.90
9760;DHT22;4919;48.792;9.202;2023-02-24T00:07:35;6.40;99.90
9760;DHT22;4919;48.792;9.202;2023-02-24T00:10:20;6.50;99.90
9760;DHT22;4919;48.792;9.202;2023-02-24T00:13:05;6.40;99.90
9760;DHT22;4919;48.792;9.202;2023-02-24T00:16:00;6.40;99.90
9760;DHT22;4919;48.792;9.202;2023-02-24T00:18:45;6.40;99.90
9760;DHT22;4919;48.792;9.202;2023-02-24T00:21:30;6.40;99.90
9760;DHT22;4919;48.792;9.202;2023-02-24T00:24:15;6.40;99.90
9760;DHT22;4919;48.792;9.202;2023-02-24T00:27:01;6.30;99.90
9760;DHT22;4919;48.792;9.202;2023-02-24T00:29:46;6.40;99.90
9760;DHT22;4919;48.792;9.202;2023-02-24T00:32:31;6.40;99.90
9760;DHT22;4919;48.792;9.202;2023-02-24T00:35:16;6.30;99.90
9760;DHT22;4919;48.792;9.202;2023-02-24T00:38:00;6.30;99.90
9760;DHT22;4919;48.792;9.202;2023-02-24T00:40:45;6.30;99.90
9760;DHT22;4919;48.792;9.202;2023-02-24T00:43:30;6.30;99.90
9760;DHT22;4919;48.792;9.202;2023-02-24T00:46:19;6.30;99.90
9760;DHT22;4919;48.792;9.202;2023-02-24T00:49:06;6.30;99.90
9760;DHT22;4919;48.792;9.202;2023-02-24T00:51:51;6.20;99.90
9760;DHT22;4919;48.792;9.202;2023-02-24T00:54:36;6.20;99.90
9760;DHT22;4919;48.792;9.202;2023-02-24T00:57:20;6.20;99.90
9760;DHT22;4919;48.792;9.202;2023-02-24T01:00:06;6.20;99.90
9760;DHT22;4919;48.792;9.202;2023-02-24T01:02:51;6.30;99.90
9760;DHT22;4919;48.792;9.202;2023-02-24T01:05:36;6.30;99.90
9760;DHT22;4919;48.792;9.202;2023-02-24T01:08:21;6.30;99.90
9760;DHT22;4919;48.792;9.202;2023-02-24T01:11:06;6.30;99.90
9760;DHT22;4919;48.792;9.202;2023-02-24T01:13:50;6.30;99.90
9760;DHT22;4919;48.792;9.202;2023-02-24T01:16:36;6.20;99.90
9760;DHT22;4919;48.792;9.202;2023-02-24T01:19:24;6.00;84.20
9760;DHT22;4919;48.792;9.202;2023-02-24T01:22:12;6.00;63.80
9760;DHT22;4919;48.792;9.202;2023-02-24T01:24:57;5.80;1.30
9760;DHT22;4919;48.792;9.202;2023-02-24T01:27:42;5.70;1.00
9760;DHT22;4919;48.792;9.202;2023-02-24T01:30:27;5.60;9.70
9760;DHT22;4919;48.792;9.202;2023-02-24T01:33:12;5.40;1.00
9760;DHT22;4919;48.792;9.202;2023-02-24T01:35:56;5.40;1.00
9760;DHT22;4919;48.792;9.202;2023-02-24T01:38:42;5.30;1.00
9760;DHT22;4919;48.792;9.202;2023-02-24T01:41:27;5.10;1.00
9760;DHT22;4919;48.792;9.202;2023-02-24T01:46:57;4.90;1.00
9760;DHT22;4919;48.792;9.202;2023-02-24T01:49:47;4.80;1.00
9760;DHT22;4919;48.792;9.202;2023-02-24T01:52:35;4.80;1.00
9760;DHT22;4919;48.792;9.202;2023-02-24T01:55:37;4.80;1.00
9760;DHT22;4919;48.792;9.202;2023-02-24T01:58:27;4.70;1.00
9760;DHT22;4919;48.792;9.202;2023-02-24T02:01:14;4.70;1.00
9760;DHT22;4919;48.792;9.202;2023-02-24T02:04:06;4.60;1.00
9760;DHT22;4919;48.792;9.202;2023-02-24T02:06:53;4.50;1.00
9760;DHT22;4919;48.792;9.202;2023-02-24T02:09:38;4.50;1.00
9760;DHT22;4919;48.792;9.202;2023-02-24T02:12:23;4.40;1.00
9760;DHT22;4919;48.792;9.202;2023-02-24T02:15:13;4.40;1.00
9760;DHT22;4919;48.792;9.202;2023-02-24T02:18:05;4.40;1.00
9760;DHT22;4919;48.792;9.202;2023-02-24T02:36:10;4.20;1.00
9760;DHT22;4919;48.792;9.202;2023-02-24T02:42:29;4.20;1.00
9760;DHT22;4919;48.792;9.202;2023-02-24T02:45:24;4.20;1.00
9760;DHT22;4919;48.792;9.202;2023-02-24T02:48:28;4.10;1.00
9760;DHT22;4919;48.792;9.202;2023-02-24T02:51:18;4.10;1.00
9760;DHT22;4919;48.792;9.202;2023-02-24T02:54:34;4.10;1.00
9760;DHT22;4919;48.792;9.202;2023-02-24T02:57:30;4.00;99.90
9760;DHT22;4919;48.792;9.202;2023-02-24T03:00:16;4.00;99.90
9760;DHT22;4919;48.792;9.202;2023-02-24T03:03:10;3.90;99.90
9760;DHT22;4919;48.792;9.202;2023-02-24T03:06:00;3.80;99.90
9760;DHT22;4919;48.792;9.202;2023-02-24T03:09:02;3.70;99.90
9760;DHT22;4919;48.792;9.202;2023-02-24T03:11:51;3.70;99.90
9760;DHT22;4919;48.792;9.202;2023-02-24T03:14:41;3.60;99.90
9760;DHT22;4919;48.792;9.202;2023-02-24T03:17:35;3.50;99.90
9760;DHT22;4919;48.792;9.202;2023-02-24T03:20:34;3.50;99.90
9760;DHT22;4919;48.792;9.202;2023-02-24T03:23:24;3.50;99.90
9760;DHT22;4919;48.792;9.202;2023-02-24T03:29:20;3.50;99.90
9760;DHT22;4919;48.792;9.202;2023-02-24T03:32:16;3.50;99.90
9760;DHT22;4919;48.792;9.202;2023-02-24T03:35:24;3.50;99.90
9760;DHT22;4919;48.792;9.202;2023-02-24T03:38:10;3.50;99.90
9760;DHT22;4919;48.792;9.202;2023-02-24T03:40:56;3.40;99.90
9760;DHT22;4919;48.792;9.202;2023-02-24T03:43:44;3.40;99.90
9760;DHT22;4919;48.792;9.202;2023-02-24T03:46:30;3.40;99.90
9760;DHT22;4919;48.792;9.202;2023-02-24T03:49:15;3.40;99.90
9760;DHT22;4919;48.792;9.202;2023-02-24T03:55:20;3.40;99.90
9760;DHT22;4919;48.792;9.202;2023-02-24T04:01:11;3.40;99.90
9760;DHT22;4919;48.792;9.202;2023-02-24T04:04:04;3.40;99.90
9760;DHT22;4919;48.792;9.202;2023-02-24T04:10:21;3.40;99.90
9760;DHT22;4919;48.792;9.202;2023-02-24T04:13:08;3.40;99.90
9760;DHT22;4919;48.792;9.202;2023-02-24T04:15:59;3.40;99.90
9760;DHT22;4919;48.792;9.202;2023-02-24T04:18:47;3.40;99.90
9760;DHT22;4919;48.792;9.202;2023-02-24T04:21:34;3.40;99.90
9760;DHT22;4919;48.792;9.202;2023-02-24T04:24:24;3.40;99.90
9760;DHT22;4919;48.792;9.202;2023-02-24T04:27:11;3.40;99.90
9760;DHT22;4919;48.792;9.202;2023-02-24T04:30:00;3.40;99.90
9760;DHT22;4919;48.792;9.202;2023-02-24T04:32:45;3.40;99.90
9760;DHT22;4919;48.792;9.202;2023-02-24T04:35:30;3.40;99.90
9760;DHT22;4919;48.792;9.202;2023-02-24T04:38:18;3.40;99.90
9760;DHT22;4919;48.792;9.202;2023-02-24T04:41:03;3.40;99.90
9760;DHT22;4919;48.792;9.202;2023-02-24T04:43:49;3.40;99.90
9760;DHT22;4919;48.792;9.202;2023-02-24T04:46:34;3.40;99.90
9760;DHT22;4919;48.792;9.202;2023-02-24T04:49:19;3.30;99.90
9760;DHT22;4919;48.792;9.202;2023-02-24T04:52:04;3.40;99.90
9760;DHT22;4919;48.792;9.202;2023-02-24T04:54:48;3.30;99.90
9760;DHT22;4919;48.792;9.202;2023-02-24T04:57:33;3.30;99.90
9760;DHT22;4919;48.792;9.202;2023-02-24T05:00:18;3.40;99.90
9760;DHT22;4919;48.792;9.202;2023-02-24T05:03:05;3.30;99.90
9760;DHT22;4919;48.792;9.202;2023-02-24T05:05:51;3.40;99.90
9760;DHT22;4919;48.792;9.202;2023-02-24T05:08:36;3.30;99.90
9760;DHT22;4919;48.792;9.202;2023-02-24T05:11:21;3.30;99.90
9760;DHT22;4919;48.792;9.202;2023-02-24T05:14:06;3.30;99.90
9760;DHT22;4919;48.792;9.202;2023-02-24T05:16:51;3.30;99.90
9760;DHT22;4919;48.792;9.202;2023-02-24T05:19:36;3.30;99.90
9760;DHT22;4919;48.792;9.202;2023-02-24T05:22:20;3.30;99.90
9760;DHT22;4919;48.792;9.202;2023-02-24T05:25:05;3.30;99.90
9760;DHT22;4919;48.792;9.202;2023-02-24T05:27:50;3.30;99.90
9760;DHT22;4919;48.792;9.202;2023-02-24T05:30:35;3.30;99.90
9760;DHT22;4919;48.792;9.202;2023-02-24T05:33:20;3.40;99.90
9760;DHT22;4919;48.792;9.202;2023-02-24T05:36:08;3.40;99.90
9760;DHT22;4919;48.792;9.202;2023-02-24T05:38:54;3.30;99.90
9760;DHT22;4919;48.792;9.202;2023-02-24T05:41:41;3.30;99.90
9760;DHT22;4919;48.792;9.202;2023-02-24T05:44:26;3.30;99.90
9760;DHT22;4919;48.792;9.202;2023-02-24T05:47:11;3.30;99.90
9760;DHT22;4919;48.792;9.202;2023-02-24T05:49:56;3.30;99.20
9760;DHT22;4919;48.792;9.202;2023-02-24T05:52:41;3.30;99.90
9760;DHT22;4919;48.792;9.202;2023-02-24T05:55:26;3.30;92.10
9760;DHT22;4919;48.792;9.202;2023-02-24T05:58:10;3.30;78.30
9760;DHT22;4919;48.792;9.202;2023-02-24T06:00:55;3.30;99.90
9760;DHT22;4919;48.792;9.202;2023-02-24T06:03:44;3.30;98.20
9760;DHT22;4919;48.792;9.202;2023-02-24T06:06:29;3.30;98.10
9760;DHT22;4919;48.792;9.202;2023-02-24T06:09:14;3.30;92.80
9760;DHT22;4919;48.792;9.202;2023-02-24T06:11:59;3.30;91.00
9760;DHT22;4919;48.792;9.202;2023-02-24T06:14:43;3.40;85.50
9760;DHT22;4919;48.792;9.202;2023-02-24T06:17:28;3.30;76.50
9760;DHT22;4919;48.792;9.202;2023-02-24T06:20:13;3.40;78.10
9760;DHT22;4919;48.792;9.202;2023-02-24T06:22:58;3.30;56.70
9760;DHT22;4919;48.792;9.202;2023-02-24T06:25:43;3.40;51.80
9760;DHT22;4919;48.792;9.202;2023-02-24T06:28:28;3.40;71.90
9760;DHT22;4919;48.792;9.202;2023-02-24T06:31:13;3.40;63.20
9760;DHT22;4919;48.792;9.202;2023-02-24T06:33:58;3.40;77.30
9760;DHT22;4919;48.792;9.202;2023-02-24T06:36:43;3.40;71.50
9760;DHT22;4919;48.792;9.202;2023-02-24T06:39:29;3.40;91.60
9760;DHT22;4919;48.792;9.202;2023-02-24T06:42:14;3.50;80.10
9760;DHT22;4919;48.792;9.202;2023-02-24T06:44:59;3.40;99.60
9760;DHT22;4919;48.792;9.202;2023-02-24T06:47:44;3.40;95.10
9760;DHT22;4919;48.792;9.202;2023-02-24T06:50:29;3.50;81.80
9760;DHT22;4919;48.792;9.202;2023-02-24T06:53:14;3.50;88.00
9760;DHT22;4919;48.792;9.202;2023-02-24T06:56:04;3.50;93.30
9760;DHT22;4919;48.792;9.202;2023-02-24T06:58:52;3.50;90.40
9760;DHT22;4919;48.792;9.202;2023-02-24T07:01:37;3.60;66.90
9760;DHT22;4919;48.792;9.202;2023-02-24T07:04:22;3.60;65.80
9760;DHT22;4919;48.792;9.202;2023-02-24T07:07:07;3.60;48.80
9760;DHT22;4919;48.792;9.202;2023-02-24T07:09:52;3.60;41.80
9760;DHT22;4919;48.792;9.202;2023-02-24T07:12:37;3.60;24.10
9760;DHT22;4919;48.792;9.202;2023-02-24T07:15:21;3.60;22.40
9760;DHT22;4919;48.792;9.202;2023-02-24T07:18:06;3.70;28.10
9760;DHT22;4919;48.792;9.202;2023-02-24T07:20:51;3.70;14.50
9760;DHT22;4919;48.792;9.202;2023-02-24T07:23:41;3.70;12.50
9760;DHT22;4919;48.792;9.202;2023-02-24T07:26:26;3.70;10.80
9760;DHT22;4919;48.792;9.202;2023-02-24T07:29:12;3.70;3.20
9760;DHT22;4919;48.792;9.202;2023-02-24T07:32:01;3.70;1.00
9760;DHT22;4919;48.792;9.202;2023-02-24T07:34:46;3.70;1.00
9760;DHT22;4919;48.792;9.202;2023-02-24T07:37:31;3.80;5.80
9760;DHT22;4919;48.792;9.202;2023-02-24T07:40:16;3.80;1.00
9760;DHT22;4919;48.792;9.202;2023-02-24T07:43:00;3.70;1.00
9760;DHT22;4919;48.792;9.202;2023-02-24T07:45:45;3.70;1.00
9760;DHT22;4919;48.792;9.202;2023-02-24T07:48:30;3.80;1.00
9760;DHT22;4919;48.792;9.202;2023-02-24T07:51:19;3.80;1.00
9760;DHT22;4919;48.792;9.202;2023-02-24T07:54:04;3.80;1.00
9760;DHT22;4919;48.792;9.202;2023-02-24T07:56:49;3.80;1.00
9760;DHT22;4919;48.792;9.202;2023-02-24T07:59:34;3.90;1.00
9760;DHT22;4919;48.792;9.202;2023-02-24T08:02:19;3.90;1.00
9760;DHT22;4919;48.792;9.202;2023-02-24T08:05:04;3.90;1.00
9760;DHT22;4919;48.792;9.202;2023-02-24T08:07:49;3.90;1.00
9760;DHT22;4919;48.792;9.202;2023-02-24T08:10:34;4.00;1.00
9760;DHT22;4919;48.792;9.202;2023-02-24T08:13:19;4.00;1.00
9760;DHT22;4919;48.792;9.202;2023-02-24T08:16:04;4.00;1.00
9760;DHT22;4919;48.792;9.202;2023-02-24T08:18:49;4.10;1.00
9760;DHT22;4919;48.792;9.202;2023-02-24T08:21:34;4.10;1.00
9760;DHT22;4919;48.792;9.202;2023-02-24T08:24:24;4.00;1.00
9760;DHT22;4919;48.792;9.202;2023-02-24T08:27:08;4.00;1.00
9760;DHT22;4919;48.792;9.202;2023-02-24T08:29:55;4.00;1.00
9760;DHT22;4919;48.792;9.202;2023-02-24T08:32:41;3.90;1.00
9760;DHT22;4919;48.792;9.202;2023-02-24T08:35:28;3.90;1.00
9760;DHT22;4919;48.792;9.202;2023-02-24T08:38:16;3.90;1.00
9760;DHT22;4919;48.792;9.202;2023-02-24T08:41:01;4.00;1.00
9760;DHT22;4919;48.792;9.202;2023-02-24T08:43:47;3.90;1.00
9760;DHT22;4919;48.792;9.202;2023-02-24T08:46:32;3.90;1.00
9760;DHT22;4919;48.792;9.202;2023-02-24T08:49:18;3.90;1.00
9760;DHT22;4919;48.792;9.202;2023-02-24T08:52:02;3.90;1.00
9760;DHT22;4919;48.792;9.202;2023-02-24T08:54:47;4.00;1.00
9760;DHT22;4919;48.792;9.202;2023-02-24T08:57:32;4.00;1.00
9760;DHT22;4919;48.792;9.202;2023-02-24T09:00:17;4.00;1.00
9760;DHT22;4919;48.792;9.202;2023-02-24T09:03:02;4.00;1.00
9760;DHT22;4919;48.792;9.202;2023-02-24T09:05:46;4.20;1.00
9760;DHT22;4919;48.792;9.202;2023-02-24T09:08:33;4.20;1.00
9760;DHT22;4919;48.792;9.202;2023-02-24T09:11:17;4.30;1.00
9760;DHT22;4919;48.792;9.202;2023-02-24T09:14:02;4.40;1.00
9760;DHT22;4919;48.792;9.202;2023-02-24T09:16:49;4.50;1.00
9760;DHT22;4919;48.792;9.202;2023-02-24T09:19:43;4.50;1.00
9760;DHT22;4919;48.792;9.202;2023-02-24T09:22:30;4.60;1.00
9760;DHT22;4919;48.792;9.202;2023-02-24T09:25:15;4.60;1.00
9760;DHT22;4919;48.792;9.202;2023-02-24T09:28:12;4.70;1.00
9760;DHT22;4919;48.792;9.202;2023-02-24T09:30:59;4.70;1.00
9760;DHT22;4919;48.792;9.202;2023-02-24T09:33:44;4.70;1.00
9760;DHT22;4919;48.792;9.202;2023-02-24T09:36:29;4.60;1.00
9760;DHT22;4919;48.792;9.202;2023-02-24T09:39:14;4.60;1.00
9760;DHT22;4919;48.792;9.202;2023-02-24T09:41:59;4.60;1.00
9760;DHT22;4919;48.792;9.202;2023-02-24T09:44:47;4.60;1.00
9760;DHT22;4919;48.792;9.202;2023-02-24T09:47:37;4.70;1.00
9760;DHT22;4919;48.792;9.202;2023-02-24T09:50:31;4.70;1.00
9760;DHT22;4919;48.792;9.202;2023-02-24T09:53:17;4.60;1.00
9760;DHT22;4919;48.792;9.202;2023-02-24T09:56:06;4.60;1.00
9760;DHT22;4919;48.792;9.202;2023-02-24T10:05:24;4.90;1.00
9760;DHT22;4919;48.792;9.202;2023-02-24T10:08:25;5.00;1.00
9760;DHT22;4919;48.792;9.202;2023-02-24T10:11:11;4.80;1.00
9760;DHT22;4919;48.792;9.202;2023-02-24T10:14:02;5.00;1.00
9760;DHT22;4919;48.792;9.202;2023-02-24T10:16:50;5.00;1.00
9760;DHT22;4919;48.792;9.202;2023-02-24T10:19:37;5.00;1.00
9760;DHT22;4919;48.792;9.202;2023-02-24T10:22:51;5.00;1.00
9760;DHT22;4919;48.792;9.202;2023-02-24T10:25:51;5.10;1.00
9760;DHT22;4919;48.792;9.202;2023-02-24T10:29:13;5.30;1.00
9760;DHT22;4919;48.792;9.202;2023-02-24T10:32:13;5.30;1.00
9760;DHT22;4919;48.792;9.202;2023-02-24T10:35:01;5.40;1.00
9760;DHT22;4919;48.792;9.202;2023-02-24T10:37:46;5.40;1.00
9760;DHT22;4919;48.792;9.202;2023-02-24T10:40:33;5.30;1.00
9760;DHT22;4919;48.792;9.202;2023-02-24T10:43:26;5.40;1.00
9760;DHT22;4919;48.792;9.202;2023-02-24T10:46:29;5.40;1.00
9760;DHT22;4919;48.792;9.202;2023-02-24T10:49:14;5.30;1.00
9760;DHT22;4919;48.792;9.202;2023-02-24T10:51:59;5.30;1.00
9760;DHT22;4919;48.792;9.202;2023-02-24T10:54:44;5.40;1.00
9760;DHT22;4919;48.792;9.202;2023-02-24T10:57:29;5.30;1.00
9760;DHT22;4919;48.792;9.202;2023-02-24T11:00:19;5.20;1.00
9760;DHT22;4919;48.792;9.202;2023-02-24T11:03:08;5.30;1.00
9760;DHT22;4919;48.792;9.202;2023-02-24T11:05:53;5.30;1.00
9760;DHT22;4919;48.792;9.202;2023-02-24T11:08:38;5.10;1.00
9760;DHT22;4919;48.792;9.202;2023-02-24T11:11:25;5.10;1.00
9760;DHT22;4919;48.792;9.202;2023-02-24T11:14:16;4.90;1.00
9760;DHT22;4919;48.792;9.202;2023-02-24T11:17:01;4.80;1.00
9760;DHT22;4919;48.792;9.202;2023-02-24T11:19:47;4.70;1.00
9760;DHT22;4919;48.792;9.202;2023-02-24T11:22:36;4.70;1.00
9760;DHT22;4919;48.792;9.202;2023-02-24T11:25:42;4.60;1.00
9760;DHT22;4919;48.792;9.202;2023-02-24T11:34:50;3.80;33.10
9760;DHT22;4919;48.792;9.202;2023-02-24T11:37:59;3.70;99.90
9760;DHT22;4919;48.792;9.202;2023-02-24T11:40:49;3.50;99.90
9760;DHT22;4919;48.792;9.202;2023-02-24T11:43:36;3.40;99.90
9760;DHT22;4919;48.792;9.202;2023-02-24T11:46:35;3.40;99.90
9760;DHT22;4919;48.792;9.202;2023-02-24T11:49:29;3.40;99.90
9760;DHT22;4919;48.792;9.202;2023-02-24T11:52:23;3.30;99.90
9760;DHT22;4919;48.792;9.202;2023-02-24T11:55:36;3.10;99.90
9760;DHT22;4919;48.792;9.202;2023-02-24T11:58:59;2.90;99.90
9760;DHT22;4919;48.792;9.202;2023-02-24T12:11:00;2.90;1.00
9760;DHT22;4919;48.792;9.202;2023-02-24T12:13:55;2.90;1.00
9760;DHT22;4919;48.792;9.202;2023-02-24T12:16:45;2.80;1.00
9760;DHT22;4919;48.792;9.202;2023-02-24T12:19:54;2.70;1.00
9760;DHT22;4919;48.792;9.202;2023-02-24T12:22:51;2.70;1.00
9760;DHT22;4919;48.792;9.202;2023-02-24T12:34:46;2.40;1.00
9760;DHT22;4919;48.792;9.202;2023-02-24T12:44:16;2.60;1.00
9760;DHT22;4919;48.792;9.202;2023-02-24T12:59:14;2.60;1.00
9760;DHT22;4919;48.792;9.202;2023-02-24T13:05:19;2.40;1.00
9760;DHT22;4919;48.792;9.202;2023-02-24T13:08:20;2.50;1.00
9760;DHT22;4919;48.792;9.202;2023-02-24T14:08:37;2.40;99.90
9760;DHT22;4919;48.792;9.202;2023-02-24T14:11:25;2.50;99.90
9760;DHT22;4919;48.792;9.202;2023-02-24T14:14:15;2.50;99.90
9760;DHT22;4919;48.792;9.202;2023-02-24T14:17:00;2.50;99.90
9760;DHT22;4919;48.792;9.202;2023-02-24T14:19:45;2.40;99.90
9760;DHT22;4919;48.792;9.202;2023-02-24T14:22:30;2.40;99.90
9760;DHT22;4919;48.792;9.202;2023-02-24T14:25:15;2.60;99.90
9760;DHT22;4919;48.792;9.202;2023-02-24T14:28:00;2.50;99.90
9760;DHT22;4919;48.792;9.202;2023-02-24T14:30:54;2.40;99.90
9760;DHT22;4919;48.792;9.202;2023-02-24T14:33:42;2.50;99.90
9760;DHT22;4919;48.792;9.202;2023-02-24T14:36:37;2.50;99.90
9760;DHT22;4919;48.792;9.202;2023-02-24T14:39:26;2.50;99.90
9760;DHT22;4919;48.792;9.202;2023-02-24T14:42:12;2.50;99.90
9760;DHT22;4919;48.792;9.202;2023-02-24T14:44:58;2.50;99.90
9760;DHT22;4919;48.792;9.202;2023-02-24T14:47:43;2.50;99.90
9760;DHT22;4919;48.792;9.202;2023-02-24T14:50:32;2.50;99.90
9760;DHT22;4919;48.792;9.202;2023-02-24T14:53:18;2.50;99.90
9760;DHT22;4919;48.792;9.202;2023-02-24T14:56:05;2.50;99.90
9760;DHT22;4919;48.792;9.202;2023-02-24T14:58:58;2.50;99.90
9760;DHT22;4919;48.792;9.202;2023-02-24T15:01:48;2.40;99.90
9760;DHT22;4919;48.792;9.202;2023-02-24T15:04:37;2.40;99.90
9760;DHT22;4919;48.792;9.202;2023-02-24T15:07:29;2.30;99.90
9760;DHT22;4919;48.792;9.202;2023-02-24T15:10:21;2.30;99.90
9760;DHT22;4919;48.792;9.202;2023-02-24T15:13:14;2.20;99.90
9760;DHT22;4919;48.792;9.202;2023-02-24T15:16:11;2.30;99.90
9760;DHT22;4919;48.792;9.202;2023-02-24T15:18:59;2.30;99.90
9760;DHT22;4919;48.792;9.202;2023-02-24T15:21:44;2.20;99.90
9760;DHT22;4919;48.792;9.202;2023-02-24T15:24:32;2.30;99.90
9760;DHT22;4919;48.792;9.202;2023-02-24T15:27:21;2.30;99.90
9760;DHT22;4919;48.792;9.202;2023-02-24T15:30:20;2.30;99.90
9760;DHT22;4919;48.792;9.202;2023-02-24T15:33:20;2.20;99.90
9760;DHT22;4919;48.792;9.202;2023-02-24T15:36:34;2.30;99.90
9760;DHT22;4919;48.792;9.202;2023-02-24T15:39:26;2.20;99.90
9760;DHT22;4919;48.792;9.202;2023-02-24T15:42:27;2.20;99.90
9760;DHT22;4919;48.792;9.202;2023-02-24T15:48:19;2.30;99.90
9760;DHT22;4919;48.792;9.202;2023-02-24T15:51:05;2.20;99.90
9760;DHT22;4919;48.792;9.202;2023-02-24T15:53:50;2.30;99.90
9760;DHT22;4919;48.792;9.202;2023-02-24T15:56:35;2.30;99.90
9760;DHT22;4919;48.792;9.202;2023-02-24T15:59:19;2.30;99.90
9760;DHT22;4919;48.792;9.202;2023-02-24T16:02:14;2.30;99.90
9760;DHT22;4919;48.792;9.202;2023-02-24T16:04:59;2.40;99.90
9760;DHT22;4919;48.792;9.202;2023-02-24T16:07:45;2.30;99.90
9760;DHT22;4919;48.792;9.202;2023-02-24T16:10:31;2.30;99.90
9760;DHT22;4919;48.792;9.202;2023-02-24T16:13:22;2.30;99.90
9760;DHT22;4919;48.792;9.202;2023-02-24T16:16:09;2.40;99.90
9760;DHT22;4919;48.792;9.202;2023-02-24T16:18:55;2.40;1.00
9760;DHT22;4919;48.792;9.202;2023-02-24T16:21:40;2.40;99.90
9760;DHT22;4919;48.792;9.202;2023-02-24T16:24:25;2.40;99.90
9760;DHT22;4919;48.792;9.202;2023-02-24T16:27:18;2.50;99.90
9760;DHT22;4919;48.792;9.202;2023-02-24T16:30:03;2.50;99.90
9760;DHT22;4919;48.792;9.202;2023-02-24T16:32:48;2.40;99.90
9760;DHT22;4919;48.792;9.202;2023-02-24T16:35:33;2.40;99.90
9760;DHT22;4919;48.792;9.202;2023-02-24T16:38:19;2.50;99.90
9760;DHT22;4919;48.792;9.202;2023-02-24T16:41:04;2.50;99.90
9760;DHT22;4919;48.792;9.202;2023-02-24T16:43:49;2.50;99.90
9760;DHT22;4919;48.792;9.202;2023-02-24T16:46:35;2.50;99.90
9760;DHT22;4919;48.792;9.202;2023-02-24T16:49:20;2.50;99.90
9760;DHT22;4919;48.792;9.202;2023-02-24T16:52:05;2.50;99.90
9760;DHT22;4919;48.792;9.202;2023-02-24T16:54:50;2.50;99.90
9760;DHT22;4919;48.792;9.202;2023-02-24T16:57:35;2.50;99.90
9760;DHT22;4919;48.792;9.202;2023-02-24T17:00:20;2.60;99.90
9760;DHT22;4919;48.792;9.202;2023-02-24T17:03:27;2.50;99.90
9760;DHT22;4919;48.792;9.202;2023-02-24T17:06:14;2.50;99.90
9760;DHT22;4919;48.792;9.202;2023-02-24T17:08:59;2.50;99.90
9760;DHT22;4919;48.792;9.202;2023-02-24T17:11:44;2.60;99.90
9760;DHT22;4919;48.792;9.202;2023-02-24T17:14:29;2.50;99.90
9760;DHT22;4919;48.792;9.202;2023-02-24T17:17:14;2.60;99.90
9760;DHT22;4919;48.792;9.202;2023-02-24T17:19:59;2.50;99.90
9760;DHT22;4919;48.792;9.202;2023-02-24T17:22:44;2.60;99.90
9760;DHT22;4919;48.792;9.202;2023-02-24T17:25:30;2.60;99.90
9760;DHT22;4919;48.792;9.202;2023-02-24T17:28:15;2.50;99.90
9760;DHT22;4919;48.792;9.202;2023-02-24T17:31:00;2.50;99.90
9760;DHT22;4919;48.792;9.202;2023-02-24T17:33:45;2.60;99.90
9760;DHT22;4919;48.792;9.202;2023-02-24T17:36:30;2.60;99.90
9760;DHT22;4919;48.792;9.202;2023-02-24T17:39:15;2.60;99.90
9760;DHT22;4919;48.792;9.202;2023-02-24T17:41:59;2.60;99.90
9760;DHT22;4919;48.792;9.202;2023-02-24T17:44:44;2.60;99.90
9760;DHT22;4919;48.792;9.202;2023-02-24T17:47:30;2.60;99.90
9760;DHT22;4919;48.792;9.202;2023-02-24T17:50:15;2.70;99.90
9760;DHT22;4919;48.792;9.202;2023-02-24T17:53:00;2.70;99.90
9760;DHT22;4919;48.792;9.202;2023-02-24T17:55:45;2.70;99.90
9760;DHT22;4919;48.792;9.202;2023-02-24T17:58:30;2.60;99.90
9760;DHT22;4919;48.792;9.202;2023-02-24T18:01:15;2.70;99.90
9760;DHT22;4919;48.792;9.202;2023-02-24T18:03:59;2.70;99.90
9760;DHT22;4919;48.792;9.202;2023-02-24T18:06:44;2.70;99.90
9760;DHT22;4919;48.792;9.202;2023-02-24T18:09:29;2.70;99.90
9760;DHT22;4919;48.792;9.202;2023-02-24T18:12:14;2.70;99.90
9760;DHT22;4919;48.792;9.202;2023-02-24T18:14:59;2.70;99.90
9760;DHT22;4919;48.792;9.202;2023-02-24T18:17:44;2.80;99.90
9760;DHT22;4919;48.792;9.202;2023-02-24T18:20:29;2.70;99.90
9760;DHT22;4919;48.792;9.202;2023-02-24T18:23:14;2.80;99.90
9760;DHT22;4919;48.792;9.202;2023-02-24T18:26:03;2.70;99.90
9760;DHT22;4919;48.792;9.202;2023-02-24T18:28:48;2.80;99.90
9760;DHT22;4919;48.792;9.202;2023-02-24T18:31:33;2.80;99.90
9760;DHT22;4919;48.792;9.202;2023-02-24T18:34:17;2.80;99.90
9760;DHT22;4919;48.792;9.202;2023-02-24T18:37:02;2.80;99.90
9760;DHT22;4919;48.792;9.202;2023-02-24T18:39:47;2.80;99.90
9760;DHT22;4919;48.792;9.202;2023-02-24T18:42:32;2.90;99.90
9760;DHT22;4919;48.792;9.202;2023-02-24T18:45:18;2.90;99.90
9760;DHT22;4919;48.792;9.202;2023-02-24T18:48:03;2.90;99.90
9760;DHT22;4919;48.792;9.202;2023-02-24T18:50:55;2.90;99.90
9760;DHT22;4919;48.792;9.202;2023-02-24T18:53:40;2.90;99.90
9760;DHT22;4919;48.792;9.202;2023-02-24T18:56:26;2.90;99.90
9760;DHT22;4919;48.792;9.202;2023-02-24T18:59:11;2.90;99.90
9760;DHT22;4919;48.792;9.202;2023-02-24T19:01:56;2.90;99.90
9760;DHT22;4919;48.792;9.202;2023-02-24T19:04:41;2.90;99.90
9760;DHT22;4919;48.792;9.202;2023-02-24T19:07:26;2.90;99.90
9760;DHT22;4919;48.792;9.202;2023-02-24T19:10:11;3.00;99.90
9760;DHT22;4919;48.792;9.202;2023-02-24T19:12:56;2.90;99.90
9760;DHT22;4919;48.792;9.202;2023-02-24T19:15:40;3.00;99.90
9760;DHT22;4919;48.792;9.202;2023-02-24T19:18:25;3.00;99.90
9760;DHT22;4919;48.792;9.202;2023-02-24T19:21:10;3.00;99.90
9760;DHT22;4919;48.792;9.202;2023-02-24T19:23:58;3.10;99.90
9760;DHT22;4919;48.792;9.202;2023-02-24T19:26:43;3.10;99.90
9760;DHT22;4919;48.792;9.202;2023-02-24T19:29:28;3.10;99.90
9760;DHT22;4919;48.792;9.202;2023-02-24T19:32:13;3.10;99.90
9760;DHT22;4919;48.792;9.202;2023-02-24T19:34:58;3.10;99.90
9760;DHT22;4919;48.792;9.202;2023-02-24T19:37:43;3.10;99.90
9760;DHT22;4919;48.792;9.202;2023-02-24T19:40:30;3.10;99.90
9760;DHT22;4919;48.792;9.202;2023-02-24T19:43:15;3.10;99.90
9760;DHT22;4919;48.792;9.202;2023-02-24T19:46:04;3.10;99.90
9760;DHT22;4919;48.792;9.202;2023-02-24T19:48:49;3.20;99.90
9760;DHT22;4919;48.792;9.202;2023-02-24T19:51:34;3.20;99.90
9760;DHT22;4919;48.792;9.202;2023-02-24T19:54:19;3.20;99.90
9760;DHT22;4919;48.792;9.202;2023-02-24T19:57:04;3.30;99.90
9760;DHT22;4919;48.792;9.202;2023-02-24T19:59:49;3.30;99.90
9760;DHT22;4919;48.792;9.202;2023-02-24T20:02:34;3.30;99.90
9760;DHT22;4919;48.792;9.202;2023-02-24T20:05:20;3.30;99.90
9760;DHT22;4919;48.792;9.202;2023-02-24T20:08:05;3.30;99.90
9760;DHT22;4919;48.792;9.202;2023-02-24T20:11:04;3.30;99.90
9760;DHT22;4919;48.792;9.202;2023-02-24T20:13:52;3.30;99.90
9760;DHT22;4919;48.792;9.202;2023-02-24T20:16:39;3.40;99.90
9760;DHT22;4919;48.792;9.202;2023-02-24T20:19:23;3.30;99.90
9760;DHT22;4919;48.792;9.202;2023-02-24T20:22:09;3.30;99.90
9760;DHT22;4919;48.792;9.202;2023-02-24T20:24:53;3.30;99.90
9760;DHT22;4919;48.792;9.202;2023-02-24T20:27:38;3.40;99.90
9760;DHT22;4919;48.792;9.202;2023-02-24T20:30:23;3.40;99.90
9760;DHT22;4919;48.792;9.202;2023-02-24T20:33:08;3.40;99.90
9760;DHT22;4919;48.792;9.202;2023-02-24T20:35:53;3.30;99.90
9760;DHT22;4919;48.792;9.202;2023-02-24T20:38:38;3.30;99.90
9760;DHT22;4919;48.792;9.202;2023-02-24T20:41:24;3.30;99.90
9760;DHT22;4919;48.792;9.202;2023-02-24T20:44:09;3.30;99.90
9760;DHT22;4919;48.792;9.202;2023-02-24T20:46:54;3.30;99.90
9760;DHT22;4919;48.792;9.202;2023-02-24T20:49:38;3.30;99.90
9760;DHT22;4919;48.792;9.202;2023-02-24T20:52:23;3.30;99.90
9760;DHT22;4919;48.792;9.202;2023-02-24T20:55:08;3.30;99.90
9760;DHT22;4919;48.792;9.202;2023-02-24T20:57:53;3.30;99.90
9760;DHT22;4919;48.792;9.202;2023-02-24T21:00:38;3.30;99.90
9760;DHT22;4919;48.792;9.202;2023-02-24T21:03:23;3.30;99.90
9760;DHT22;4919;48.792;9.202;2023-02-24T21:06:12;3.30;99.90